»·PEaware :: JST503 YPAD-YBCG

JST503 :: YPAD-YBCG

FLIGHT INFORMATION

Flight Status: Arrived
Operator:
Jetstar Airways
More flights by this operator :: More flights under this callsign
Pilot: Merv A. (1555)
Aircraft: AIRBUS A320
(A320)
More flights by this aircraft type
Origin: YPAD Adelaide Intl
Australia
Destination: YBCG Coolangatta
Australia
More flights between these airports :: More routes between these airports
Route: SEDAN2 SEDAN Y19 UBDIB Y23 BERNI Y43 GREAV
File this flight plan on PilotEdge
Remarks: RMK / SIMBRIEF
Altitude:
(Current/Filed)
37,000ft
Speed:
(Current/Filed)
455kts
Departed: 14-Oct-19 12:26 AM
Arrived: 14-Oct-19 02:29 AM
Distance/Time
Traveled:
866nm/2:03
Distance/Time
To Go:
Arrived

Flight Plot

Page will automatically refresh every two minutes.

Flight plan parsing failed; only flown route is shown


Map Options




Map Legend


Flown Route
Filed Route
Departure Airport
Arrival Airport
Navaid (VOR, NDB)
Fix

Horizontal Profiles

Position Reports

Time Latitude Longitude Heading Altitude Ground
Speed
14-Oct-19 00:10 -34.940744 138.536920 319 34ft 0kts
14-Oct-19 00:11 -34.940744 138.536920 319 34ft 0kts
14-Oct-19 00:12 -34.940744 138.536920 319 34ft 0kts
14-Oct-19 00:13 -34.940744 138.536920 319 34ft 0kts
14-Oct-19 00:14 -34.940744 138.536920 319 34ft 0kts
14-Oct-19 00:15 -34.940746 138.536922 319 34ft 0kts
14-Oct-19 00:16 -34.940975 138.537518 230 34ft 2kts
14-Oct-19 00:17 -34.940847 138.537701 229 34ft 0kts
14-Oct-19 00:18 -34.940847 138.537700 229 34ft 0kts
14-Oct-19 00:19 -34.940848 138.537700 229 34ft 0kts
14-Oct-19 00:20 -34.941125 138.537474 183 34ft 5kts
14-Oct-19 00:21 -34.940908 138.539145 50 34ft 10kts
14-Oct-19 00:22 -34.939424 138.541823 135 34ft 7kts
14-Oct-19 00:23 -34.940728 138.543002 193 34ft 4kts
14-Oct-19 00:24 -34.941335 138.542244 229 34ft 2kts
14-Oct-19 00:25 -34.955834 138.520809 230 595ft 156kts
14-Oct-19 00:26 -34.987807 138.474596 229 2588ft 232kts
14-Oct-19 00:27 -35.034476 138.413064 204 6268ft 261kts
14-Oct-19 00:28 -35.097745 138.454581 131 9732ft 300kts
14-Oct-19 00:29 -35.102711 138.566443 85 11527ft 372kts
14-Oct-19 00:30 -35.048086 138.672728 45 14333ft 384kts
14-Oct-19 00:31 -34.975177 138.771188 44 16971ft 399kts
14-Oct-19 00:32 -34.898956 138.872669 44 19345ft 411kts
14-Oct-19 00:33 -34.820407 138.976787 44 21348ft 425kts
14-Oct-19 00:34 -34.739149 139.084202 44 23234ft 437kts
14-Oct-19 00:35 -34.655714 139.194213 44 25015ft 447kts
14-Oct-19 00:36 -34.574359 139.308057 56 26541ft 462kts
14-Oct-19 00:37 -34.523209 139.455428 67 28040ft 472kts
14-Oct-19 00:38 -34.475200 139.604975 67 29327ft 482kts
14-Oct-19 00:39 -34.426359 139.757598 67 30528ft 490kts
14-Oct-19 00:40 -34.376593 139.913055 67 31597ft 500kts
14-Oct-19 00:41 -34.326021 140.070586 67 32725ft 504kts
14-Oct-19 00:42 -34.275135 140.228554 67 33994ft 504kts
14-Oct-19 00:43 -34.226932 140.387308 73 35194ft 505kts
14-Oct-19 00:44 -34.192428 140.551903 74 36342ft 505kts
14-Oct-19 00:45 -34.158045 140.716934 74 36965ft 506kts
14-Oct-19 00:46 -34.123637 140.880968 74 36965ft 504kts
14-Oct-19 00:47 -34.088946 141.045048 74 36958ft 504kts
14-Oct-19 00:48 -34.054118 141.208549 74 36952ft 504kts
14-Oct-19 00:49 -34.018932 141.372512 75 36946ft 505kts
14-Oct-19 00:51 -33.983556 141.536197 75 36939ft 504kts
14-Oct-19 00:52 -33.947975 141.699654 75 36936ft 504kts
14-Oct-19 00:53 -33.912324 141.862283 75 36935ft 504kts
14-Oct-19 00:54 -33.876327 142.025363 75 36935ft 504kts
14-Oct-19 00:55 -33.840122 142.188258 74 36932ft 504kts
14-Oct-19 00:56 -33.803718 142.350931 74 36931ft 505kts
14-Oct-19 00:57 -33.767034 142.513746 74 36930ft 505kts
14-Oct-19 00:58 -33.730175 142.676252 74 36928ft 505kts
14-Oct-19 00:59 -33.693003 142.839060 74 36926ft 506kts
14-Oct-19 01:00 -33.655364 143.002793 75 36923ft 506kts
14-Oct-19 01:01 -33.617815 143.165088 75 36919ft 506kts
14-Oct-19 01:02 -33.579860 143.328054 75 36914ft 507kts
14-Oct-19 01:03 -33.541692 143.490870 75 36909ft 507kts
14-Oct-19 01:04 -33.503395 143.653172 75 36904ft 507kts
14-Oct-19 01:05 -33.461896 143.815120 69 36898ft 508kts
14-Oct-19 01:06 -33.412657 143.973201 70 36892ft 508kts
14-Oct-19 01:07 -33.363925 144.131798 70 36886ft 508kts
14-Oct-19 01:08 -33.315602 144.288574 70 36880ft 508kts
14-Oct-19 01:09 -33.265943 144.448813 70 36875ft 508kts
14-Oct-19 01:09 -33.225039 144.580125 70 36870ft 508kts
14-Oct-19 01:11 -33.167284 144.764515 70 36870ft 508kts
14-Oct-19 01:12 -33.117584 144.922305 69 36865ft 508kts
14-Oct-19 01:12 -33.076711 145.051443 69 36861ft 508kts
14-Oct-19 01:14 -33.017479 145.237615 69 36857ft 508kts
14-Oct-19 01:14 -32.975541 145.368749 69 36854ft 508kts
14-Oct-19 01:15 -32.924896 145.526364 69 36851ft 508kts
14-Oct-19 01:16 -32.874356 145.682857 69 36848ft 508kts
14-Oct-19 01:17 -32.823464 145.839648 69 36846ft 508kts
14-Oct-19 01:18 -32.772381 145.996244 69 36846ft 508kts
14-Oct-19 01:19 -32.720917 146.153211 69 36845ft 509kts
14-Oct-19 01:20 -32.669730 146.308566 69 36846ft 509kts
14-Oct-19 01:21 -32.617999 146.464814 68 36847ft 501kts
14-Oct-19 01:22 -32.566573 146.619355 68 36853ft 502kts
14-Oct-19 01:23 -32.515061 146.773420 68 36857ft 503kts
14-Oct-19 01:24 -32.464965 146.922547 68 36862ft 503kts
14-Oct-19 01:25 -32.411234 147.081737 68 36876ft 503kts
14-Oct-19 01:26 -32.359248 147.235006 68 36883ft 504kts
14-Oct-19 01:27 -32.306638 147.389385 68 36889ft 505kts
14-Oct-19 01:28 -32.253933 147.543306 68 36895ft 506kts
14-Oct-19 01:29 -32.201101 147.696876 68 36888ft 506kts
14-Oct-19 01:30 -32.156690 147.825417 68 36887ft 505kts
14-Oct-19 01:31 -32.094762 148.003820 68 36892ft 505kts
14-Oct-19 01:32 -32.041179 148.157408 68 36896ft 505kts
14-Oct-19 01:33 -31.987452 148.310698 68 36898ft 505kts
14-Oct-19 01:34 -31.934307 148.461638 68 36907ft 506kts
14-Oct-19 01:35 -31.879460 148.616697 68 36915ft 506kts
14-Oct-19 01:36 -31.824370 148.767622 68 36926ft 508kts
14-Oct-19 01:37 -31.769098 148.921914 68 36938ft 507kts
14-Oct-19 01:38 -31.714872 149.073252 68 36955ft 507kts
14-Oct-19 01:39 -31.659283 149.227763 68 36969ft 508kts
14-Oct-19 01:40 -31.604306 149.379834 68 36981ft 508kts
14-Oct-19 01:41 -31.548822 149.532578 68 36982ft 507kts
14-Oct-19 01:42 -31.493505 149.684169 67 36985ft 507kts
14-Oct-19 01:43 -31.437783 149.836177 67 36992ft 507kts
14-Oct-19 01:44 -31.381864 149.988036 67 36992ft 507kts
14-Oct-19 01:45 -31.325576 150.140216 67 36988ft 508kts
14-Oct-19 01:46 -31.269344 150.291573 67 36979ft 508kts
14-Oct-19 01:47 -31.216826 150.432341 67 36982ft 509kts
14-Oct-19 01:48 -31.156154 150.594244 67 36988ft 509kts
14-Oct-19 01:49 -31.098947 150.746216 67 36991ft 510kts
14-Oct-19 01:50 -31.021835 150.882493 45 36994ft 510kts
14-Oct-19 01:51 -30.924019 151.002773 45 36991ft 510kts
14-Oct-19 01:52 -30.826205 151.122427 45 36990ft 510kts
14-Oct-19 01:53 -30.728424 151.241580 45 36988ft 510kts
14-Oct-19 01:54 -30.630407 151.360610 45 36989ft 509kts
14-Oct-19 01:55 -30.532485 151.479132 45 36991ft 509kts
14-Oct-19 01:56 -30.441302 151.589154 44 36994ft 509kts
14-Oct-19 01:57 -30.335125 151.715441 44 36998ft 509kts
14-Oct-19 01:58 -30.236922 151.832440 44 37017ft 509kts
14-Oct-19 01:59 -30.138773 151.949385 44 36967ft 510kts
14-Oct-19 02:00 -30.040046 152.066746 44 34640ft 503kts
14-Oct-19 02:01 -29.943842 152.180771 44 32027ft 484kts
14-Oct-19 02:02 -29.851950 152.289338 43 30053ft 464kts
14-Oct-19 02:03 -29.763199 152.393865 43 28161ft 451kts
14-Oct-19 02:04 -29.676092 152.496152 43 26310ft 439kts
14-Oct-19 02:05 -29.592386 152.594161 43 24559ft 426kts
14-Oct-19 02:06 -29.510084 152.690290 43 22842ft 415kts
14-Oct-19 02:07 -29.430433 152.783100 43 21222ft 405kts
14-Oct-19 02:08 -29.351573 152.874768 43 19641ft 396kts
14-Oct-19 02:09 -29.274682 152.963947 43 18116ft 388kts
14-Oct-19 02:10 -29.201392 153.048735 43 16671ft 378kts
14-Oct-19 02:11 -29.127066 153.134550 43 15195ft 369kts
14-Oct-19 02:12 -29.056551 153.215784 43 13798ft 354kts
14-Oct-19 02:13 -28.987570 153.295090 44 12407ft 345kts
14-Oct-19 02:14 -28.920621 153.371922 44 11143ft 332kts
14-Oct-19 02:15 -28.857771 153.443886 43 10131ft 309kts
14-Oct-19 02:16 -28.785422 153.488384 18 9301ft 289kts
14-Oct-19 02:17 -28.712346 153.521187 17 8212ft 277kts
14-Oct-19 02:18 -28.641730 153.552599 17 7129ft 267kts
14-Oct-19 02:19 -28.573500 153.582867 16 6056ft 260kts
14-Oct-19 02:20 -28.506509 153.611216 14 4995ft 252kts
14-Oct-19 02:21 -28.441960 153.635592 15 4291ft 229kts
14-Oct-19 02:22 -28.384524 153.645817 330 3950ft 202kts
14-Oct-19 02:23 -28.336035 153.615053 331 3295ft 187kts
14-Oct-19 02:24 -28.291514 153.586613 332 2649ft 177kts
14-Oct-19 02:25 -28.250614 153.560305 331 1946ft 142kts
14-Oct-19 02:26 -28.218393 153.540094 331 1170ft 129kts
14-Oct-19 02:27 -28.187368 153.520380 331 439ft 128kts
14-Oct-19 02:28 -28.161479 153.503888 330 35ft 37kts
14-Oct-19 02:29 -28.156051 153.501868 72 35ft 8kts
14-Oct-19 02:30 -28.157631 153.503571 150 35ft 8kts
14-Oct-19 02:31 -28.160470 153.505372 150 35ft 14kts
14-Oct-19 02:32 -28.163732 153.507448 150 35ft 13kts
14-Oct-19 02:33 -28.164376 153.509787 60 35ft 8kts
14-Oct-19 02:34 -28.164376 153.511368 150 35ft 2kts
14-Oct-19 02:35 -28.164400 153.511384 150 35ft 0kts
14-Oct-19 02:36 -28.164400 153.511384 150 35ft 0kts

Navigation Log

Ident Type
Flight plan parsing failed, navigation log unavailable